Carland, Michigan
Current Conditions -  °F | °C
As of 3:54 PM on Sunday 23 Nov 2014 (Local Time) from KRNP Reporting Station
Broken Clouds Broken Clouds  
Wind Chill: 50°   Ceiling: 7500
Heat Index: 50°   Visibility: 10mi
Dew Point: 46°   Wind: 8mph
Humidity: 85%   Direction: 130°SE
Pressure: 29.65"   Gusts: NA
Location:  43.0981°N, 84.3788°W
Report Text: KRNP 232054Z AUTO 13007KT 10SM SCT033 SCT050 BKN075 10/08 A2965 RMK AO2 T01010076
Loading
Personal Weather Stations






























Interactive Weather Map New forecast layout! Learn more

10-Day Weather Forecast

Advertisements
Track Severe Weather on mobile